sensor_id;sensor_type;location;lat;lon;timestamp;P1;durP1;ratioP1;P2;durP2;ratioP2
12385;SDS011;6257;57.634;18.310;2023-12-07T00:01:10;5.30;;;3.80;;
12385;SDS011;6257;57.634;18.310;2023-12-07T00:03:37;5.83;;;4.30;;
12385;SDS011;6257;57.634;18.310;2023-12-07T00:06:04;5.30;;;3.97;;
12385;SDS011;6257;57.634;18.310;2023-12-07T00:08:31;5.70;;;4.10;;
12385;SDS011;6257;57.634;18.310;2023-12-07T00:10:58;5.53;;;3.80;;
12385;SDS011;6257;57.634;18.310;2023-12-07T00:13:25;5.87;;;4.17;;
12385;SDS011;6257;57.634;18.310;2023-12-07T00:15:53;5.53;;;3.90;;
12385;SDS011;6257;57.634;18.310;2023-12-07T00:18:21;6.83;;;3.90;;
12385;SDS011;6257;57.634;18.310;2023-12-07T00:20:48;5.93;;;3.93;;
12385;SDS011;6257;57.634;18.310;2023-12-07T00:23:15;5.17;;;3.83;;
12385;SDS011;6257;57.634;18.310;2023-12-07T00:25:42;5.80;;;4.00;;
12385;SDS011;6257;57.634;18.310;2023-12-07T00:28:10;6.43;;;4.00;;
12385;SDS011;6257;57.634;18.310;2023-12-07T00:30:38;7.63;;;4.10;;
12385;SDS011;6257;57.634;18.310;2023-12-07T00:33:05;5.87;;;4.20;;
12385;SDS011;6257;57.634;18.310;2023-12-07T00:35:33;6.77;;;4.80;;
12385;SDS011;6257;57.634;18.310;2023-12-07T00:38:00;7.10;;;4.73;;
12385;SDS011;6257;57.634;18.310;2023-12-07T00:40:27;6.17;;;4.67;;
12385;SDS011;6257;57.634;18.310;2023-12-07T00:42:54;8.23;;;5.00;;
12385;SDS011;6257;57.634;18.310;2023-12-07T00:45:21;7.70;;;5.40;;
12385;SDS011;6257;57.634;18.310;2023-12-07T00:47:48;7.73;;;5.50;;
12385;SDS011;6257;57.634;18.310;2023-12-07T00:50:15;9.43;;;5.17;;
12385;SDS011;6257;57.634;18.310;2023-12-07T00:52:43;10.03;;;5.50;;
12385;SDS011;6257;57.634;18.310;2023-12-07T00:55:10;7.00;;;4.90;;
12385;SDS011;6257;57.634;18.310;2023-12-07T00:57:37;8.10;;;5.20;;
12385;SDS011;6257;57.634;18.310;2023-12-07T01:00:05;8.47;;;5.57;;
12385;SDS011;6257;57.634;18.310;2023-12-07T01:02:33;9.27;;;5.60;;
12385;SDS011;6257;57.634;18.310;2023-12-07T01:05:00;8.90;;;5.50;;
12385;SDS011;6257;57.634;18.310;2023-12-07T01:07:27;7.20;;;5.03;;
12385;SDS011;6257;57.634;18.310;2023-12-07T01:09:55;6.13;;;4.33;;
12385;SDS011;6257;57.634;18.310;2023-12-07T01:12:22;6.43;;;4.57;;
12385;SDS011;6257;57.634;18.310;2023-12-07T01:14:49;5.60;;;3.90;;
12385;SDS011;6257;57.634;18.310;2023-12-07T01:17:16;6.47;;;4.20;;
12385;SDS011;6257;57.634;18.310;2023-12-07T01:19:43;6.00;;;3.83;;
12385;SDS011;6257;57.634;18.310;2023-12-07T01:22:10;4.90;;;4.00;;
12385;SDS011;6257;57.634;18.310;2023-12-07T01:24:37;7.00;;;4.13;;
12385;SDS011;6257;57.634;18.310;2023-12-07T01:27:05;5.63;;;4.00;;
12385;SDS011;6257;57.634;18.310;2023-12-07T01:29:32;9.87;;;4.60;;
12385;SDS011;6257;57.634;18.310;2023-12-07T01:31:59;8.30;;;5.27;;
12385;SDS011;6257;57.634;18.310;2023-12-07T01:34:26;5.53;;;4.40;;
12385;SDS011;6257;57.634;18.310;2023-12-07T01:36:53;6.00;;;4.07;;
12385;SDS011;6257;57.634;18.310;2023-12-07T01:39:20;7.17;;;4.70;;
12385;SDS011;6257;57.634;18.310;2023-12-07T01:41:47;6.37;;;4.53;;
12385;SDS011;6257;57.634;18.310;2023-12-07T01:44:15;5.60;;;3.93;;
12385;SDS011;6257;57.634;18.310;2023-12-07T01:46:42;6.23;;;4.07;;
12385;SDS011;6257;57.634;18.310;2023-12-07T01:49:09;5.80;;;4.27;;
12385;SDS011;6257;57.634;18.310;2023-12-07T01:51:36;6.20;;;4.17;;
12385;SDS011;6257;57.634;18.310;2023-12-07T01:54:04;7.17;;;4.37;;
12385;SDS011;6257;57.634;18.310;2023-12-07T01:56:31;7.27;;;4.20;;
12385;SDS011;6257;57.634;18.310;2023-12-07T01:58:58;7.13;;;4.40;;
12385;SDS011;6257;57.634;18.310;2023-12-07T02:01:26;6.87;;;4.27;;
12385;SDS011;6257;57.634;18.310;2023-12-07T02:03:54;7.27;;;4.60;;
12385;SDS011;6257;57.634;18.310;2023-12-07T02:06:21;6.47;;;4.40;;
12385;SDS011;6257;57.634;18.310;2023-12-07T02:08:48;6.00;;;4.17;;
12385;SDS011;6257;57.634;18.310;2023-12-07T02:11:15;6.03;;;4.30;;
12385;SDS011;6257;57.634;18.310;2023-12-07T02:13:43;6.33;;;4.20;;
12385;SDS011;6257;57.634;18.310;2023-12-07T02:16:11;6.43;;;4.37;;
12385;SDS011;6257;57.634;18.310;2023-12-07T02:18:46;6.57;;;4.53;;
12385;SDS011;6257;57.634;18.310;2023-12-07T02:21:19;6.07;;;4.17;;
12385;SDS011;6257;57.634;18.310;2023-12-07T02:23:49;6.87;;;4.73;;
12385;SDS011;6257;57.634;18.310;2023-12-07T02:29:20;6.97;;;4.27;;
12385;SDS011;6257;57.634;18.310;2023-12-07T02:31:47;6.73;;;4.77;;
12385;SDS011;6257;57.634;18.310;2023-12-07T02:34:14;6.77;;;4.87;;
12385;SDS011;6257;57.634;18.310;2023-12-07T02:36:41;6.13;;;4.60;;
12385;SDS011;6257;57.634;18.310;2023-12-07T02:39:10;6.33;;;4.97;;
12385;SDS011;6257;57.634;18.310;2023-12-07T02:41:40;7.00;;;5.03;;
12385;SDS011;6257;57.634;18.310;2023-12-07T02:44:09;6.03;;;4.67;;
12385;SDS011;6257;57.634;18.310;2023-12-07T02:46:37;6.63;;;4.73;;
12385;SDS011;6257;57.634;18.310;2023-12-07T02:49:04;6.33;;;4.80;;
12385;SDS011;6257;57.634;18.310;2023-12-07T02:51:30;5.77;;;4.57;;
12385;SDS011;6257;57.634;18.310;2023-12-07T02:53:57;6.37;;;4.90;;
12385;SDS011;6257;57.634;18.310;2023-12-07T02:56:24;6.67;;;4.77;;
12385;SDS011;6257;57.634;18.310;2023-12-07T02:58:53;6.00;;;4.27;;
12385;SDS011;6257;57.634;18.310;2023-12-07T03:01:20;6.77;;;4.33;;
12385;SDS011;6257;57.634;18.310;2023-12-07T03:03:47;5.47;;;4.20;;
12385;SDS011;6257;57.634;18.310;2023-12-07T03:06:14;5.13;;;3.60;;
12385;SDS011;6257;57.634;18.310;2023-12-07T03:08:42;5.60;;;3.53;;
12385;SDS011;6257;57.634;18.310;2023-12-07T03:11:09;4.07;;;3.27;;
12385;SDS011;6257;57.634;18.310;2023-12-07T03:13:36;5.80;;;3.83;;
12385;SDS011;6257;57.634;18.310;2023-12-07T03:16:08;5.13;;;3.27;;
12385;SDS011;6257;57.634;18.310;2023-12-07T03:18:35;5.67;;;3.00;;
12385;SDS011;6257;57.634;18.310;2023-12-07T03:21:03;4.37;;;3.20;;
12385;SDS011;6257;57.634;18.310;2023-12-07T03:23:30;6.40;;;3.50;;
12385;SDS011;6257;57.634;18.310;2023-12-07T03:25:57;5.57;;;3.33;;
12385;SDS011;6257;57.634;18.310;2023-12-07T03:28:24;5.33;;;3.30;;
12385;SDS011;6257;57.634;18.310;2023-12-07T03:30:51;4.57;;;3.57;;
12385;SDS011;6257;57.634;18.310;2023-12-07T03:33:19;4.90;;;3.10;;
12385;SDS011;6257;57.634;18.310;2023-12-07T03:35:46;5.20;;;3.33;;
12385;SDS011;6257;57.634;18.310;2023-12-07T03:38:13;5.30;;;3.60;;
12385;SDS011;6257;57.634;18.310;2023-12-07T03:40:40;5.23;;;3.57;;
12385;SDS011;6257;57.634;18.310;2023-12-07T03:43:07;4.13;;;2.93;;
12385;SDS011;6257;57.634;18.310;2023-12-07T03:45:34;5.13;;;3.53;;
12385;SDS011;6257;57.634;18.310;2023-12-07T03:48:01;4.77;;;3.33;;
12385;SDS011;6257;57.634;18.310;2023-12-07T03:50:30;5.63;;;3.53;;
12385;SDS011;6257;57.634;18.310;2023-12-07T03:52:57;4.33;;;3.50;;
12385;SDS011;6257;57.634;18.310;2023-12-07T03:55:24;4.47;;;3.60;;
12385;SDS011;6257;57.634;18.310;2023-12-07T03:57:51;5.00;;;3.23;;
12385;SDS011;6257;57.634;18.310;2023-12-07T04:00:18;5.03;;;3.33;;
12385;SDS011;6257;57.634;18.310;2023-12-07T04:02:45;4.70;;;3.43;;
12385;SDS011;6257;57.634;18.310;2023-12-07T04:05:12;4.27;;;3.17;;
12385;SDS011;6257;57.634;18.310;2023-12-07T04:07:40;5.60;;;3.90;;
12385;SDS011;6257;57.634;18.310;2023-12-07T04:10:08;4.67;;;3.70;;
12385;SDS011;6257;57.634;18.310;2023-12-07T04:12:35;6.03;;;4.33;;
12385;SDS011;6257;57.634;18.310;2023-12-07T04:15:02;6.37;;;4.30;;
12385;SDS011;6257;57.634;18.310;2023-12-07T04:17:30;5.70;;;3.80;;
12385;SDS011;6257;57.634;18.310;2023-12-07T04:19:57;5.40;;;4.03;;
12385;SDS011;6257;57.634;18.310;2023-12-07T04:22:24;5.97;;;4.20;;
12385;SDS011;6257;57.634;18.310;2023-12-07T04:24:52;5.30;;;4.03;;
12385;SDS011;6257;57.634;18.310;2023-12-07T04:27:19;6.03;;;4.30;;
12385;SDS011;6257;57.634;18.310;2023-12-07T04:29:46;6.93;;;4.10;;
12385;SDS011;6257;57.634;18.310;2023-12-07T04:32:13;7.33;;;4.57;;
12385;SDS011;6257;57.634;18.310;2023-12-07T04:34:40;7.10;;;4.53;;
12385;SDS011;6257;57.634;18.310;2023-12-07T04:37:07;6.53;;;4.20;;
12385;SDS011;6257;57.634;18.310;2023-12-07T04:39:35;5.93;;;4.10;;
12385;SDS011;6257;57.634;18.310;2023-12-07T04:42:04;6.70;;;4.60;;
12385;SDS011;6257;57.634;18.310;2023-12-07T04:44:31;6.47;;;4.87;;
12385;SDS011;6257;57.634;18.310;2023-12-07T04:46:58;6.70;;;4.90;;
12385;SDS011;6257;57.634;18.310;2023-12-07T04:49:25;9.10;;;5.03;;
12385;SDS011;6257;57.634;18.310;2023-12-07T04:51:52;7.43;;;4.87;;
12385;SDS011;6257;57.634;18.310;2023-12-07T04:54:19;9.43;;;5.40;;
12385;SDS011;6257;57.634;18.310;2023-12-07T04:56:46;8.40;;;5.27;;
12385;SDS011;6257;57.634;18.310;2023-12-07T04:59:14;8.03;;;5.40;;
12385;SDS011;6257;57.634;18.310;2023-12-07T05:01:42;8.27;;;4.93;;
12385;SDS011;6257;57.634;18.310;2023-12-07T05:04:10;8.70;;;6.03;;
12385;SDS011;6257;57.634;18.310;2023-12-07T05:06:37;9.77;;;6.13;;
12385;SDS011;6257;57.634;18.310;2023-12-07T05:09:04;7.80;;;6.27;;
12385;SDS011;6257;57.634;18.310;2023-12-07T05:11:34;7.57;;;5.63;;
12385;SDS011;6257;57.634;18.310;2023-12-07T05:14:02;10.07;;;6.40;;
12385;SDS011;6257;57.634;18.310;2023-12-07T05:16:31;7.90;;;5.93;;
12385;SDS011;6257;57.634;18.310;2023-12-07T05:18:58;10.03;;;6.93;;
12385;SDS011;6257;57.634;18.310;2023-12-07T05:21:25;9.90;;;6.50;;
12385;SDS011;6257;57.634;18.310;2023-12-07T05:23:52;8.63;;;6.20;;
12385;SDS011;6257;57.634;18.310;2023-12-07T05:26:18;8.37;;;6.30;;
12385;SDS011;6257;57.634;18.310;2023-12-07T05:28:46;10.83;;;6.63;;
12385;SDS011;6257;57.634;18.310;2023-12-07T05:31:15;10.40;;;7.03;;
12385;SDS011;6257;57.634;18.310;2023-12-07T05:33:44;10.43;;;6.80;;
12385;SDS011;6257;57.634;18.310;2023-12-07T05:36:11;9.93;;;6.77;;
12385;SDS011;6257;57.634;18.310;2023-12-07T05:38:38;9.63;;;7.03;;
12385;SDS011;6257;57.634;18.310;2023-12-07T05:41:05;9.97;;;7.23;;
12385;SDS011;6257;57.634;18.310;2023-12-07T05:43:32;8.90;;;6.90;;
12385;SDS011;6257;57.634;18.310;2023-12-07T05:45:59;8.90;;;6.63;;
12385;SDS011;6257;57.634;18.310;2023-12-07T05:48:26;10.17;;;6.83;;
12385;SDS011;6257;57.634;18.310;2023-12-07T05:50:55;10.30;;;6.00;;
12385;SDS011;6257;57.634;18.310;2023-12-07T05:53:22;10.03;;;7.13;;
12385;SDS011;6257;57.634;18.310;2023-12-07T05:55:49;11.40;;;7.27;;
12385;SDS011;6257;57.634;18.310;2023-12-07T05:58:16;10.33;;;7.37;;
12385;SDS011;6257;57.634;18.310;2023-12-07T06:00:43;11.07;;;6.97;;
12385;SDS011;6257;57.634;18.310;2023-12-07T06:03:12;10.40;;;6.83;;
12385;SDS011;6257;57.634;18.310;2023-12-07T06:05:39;11.20;;;7.07;;
12385;SDS011;6257;57.634;18.310;2023-12-07T06:08:08;9.40;;;7.00;;
12385;SDS011;6257;57.634;18.310;2023-12-07T06:10:35;9.63;;;6.80;;
12385;SDS011;6257;57.634;18.310;2023-12-07T06:13:03;9.77;;;7.50;;
12385;SDS011;6257;57.634;18.310;2023-12-07T06:15:30;11.73;;;7.90;;
12385;SDS011;6257;57.634;18.310;2023-12-07T06:17:58;11.57;;;8.37;;
12385;SDS011;6257;57.634;18.310;2023-12-07T06:20:25;11.53;;;7.47;;
12385;SDS011;6257;57.634;18.310;2023-12-07T06:22:52;10.37;;;7.90;;
12385;SDS011;6257;57.634;18.310;2023-12-07T06:25:20;11.63;;;7.63;;
12385;SDS011;6257;57.634;18.310;2023-12-07T06:27:47;10.83;;;7.93;;
12385;SDS011;6257;57.634;18.310;2023-12-07T06:30:14;11.07;;;7.80;;
12385;SDS011;6257;57.634;18.310;2023-12-07T06:32:41;10.83;;;7.60;;
12385;SDS011;6257;57.634;18.310;2023-12-07T06:35:09;10.10;;;7.03;;
12385;SDS011;6257;57.634;18.310;2023-12-07T06:37:38;10.57;;;7.40;;
12385;SDS011;6257;57.634;18.310;2023-12-07T06:40:06;11.43;;;8.20;;
12385;SDS011;6257;57.634;18.310;2023-12-07T06:42:36;11.13;;;7.50;;
12385;SDS011;6257;57.634;18.310;2023-12-07T06:45:05;11.23;;;7.50;;
12385;SDS011;6257;57.634;18.310;2023-12-07T06:47:36;11.20;;;7.23;;
12385;SDS011;6257;57.634;18.310;2023-12-07T06:50:03;11.67;;;8.10;;
12385;SDS011;6257;57.634;18.310;2023-12-07T06:52:33;10.37;;;7.30;;
12385;SDS011;6257;57.634;18.310;2023-12-07T06:55:00;10.77;;;7.30;;
12385;SDS011;6257;57.634;18.310;2023-12-07T06:57:27;11.37;;;7.93;;
12385;SDS011;6257;57.634;18.310;2023-12-07T06:59:56;11.43;;;8.13;;
12385;SDS011;6257;57.634;18.310;2023-12-07T07:02:22;9.73;;;7.37;;
12385;SDS011;6257;57.634;18.310;2023-12-07T07:04:50;12.77;;;8.07;;
12385;SDS011;6257;57.634;18.310;2023-12-07T07:07:17;10.97;;;7.10;;
12385;SDS011;6257;57.634;18.310;2023-12-07T07:09:44;10.77;;;7.10;;
12385;SDS011;6257;57.634;18.310;2023-12-07T07:12:11;13.10;;;7.47;;
12385;SDS011;6257;57.634;18.310;2023-12-07T07:14:38;12.50;;;8.00;;
12385;SDS011;6257;57.634;18.310;2023-12-07T07:17:07;11.10;;;7.57;;
12385;SDS011;6257;57.634;18.310;2023-12-07T07:19:34;11.90;;;7.80;;
12385;SDS011;6257;57.634;18.310;2023-12-07T07:22:02;12.07;;;7.77;;
12385;SDS011;6257;57.634;18.310;2023-12-07T07:24:29;10.80;;;7.17;;
12385;SDS011;6257;57.634;18.310;2023-12-07T07:26:56;12.70;;;8.23;;
12385;SDS011;6257;57.634;18.310;2023-12-07T07:29:23;12.57;;;8.27;;
12385;SDS011;6257;57.634;18.310;2023-12-07T07:31:50;12.53;;;8.53;;
12385;SDS011;6257;57.634;18.310;2023-12-07T07:34:19;11.70;;;8.20;;
12385;SDS011;6257;57.634;18.310;2023-12-07T07:36:45;12.70;;;8.60;;
12385;SDS011;6257;57.634;18.310;2023-12-07T07:39:13;13.73;;;8.57;;
12385;SDS011;6257;57.634;18.310;2023-12-07T07:41:39;12.13;;;8.70;;
12385;SDS011;6257;57.634;18.310;2023-12-07T07:44:06;12.87;;;8.47;;
12385;SDS011;6257;57.634;18.310;2023-12-07T07:46:33;13.20;;;8.67;;
12385;SDS011;6257;57.634;18.310;2023-12-07T07:49:00;12.43;;;8.70;;
12385;SDS011;6257;57.634;18.310;2023-12-07T07:51:30;13.37;;;8.40;;
12385;SDS011;6257;57.634;18.310;2023-12-07T07:53:57;13.60;;;8.70;;
12385;SDS011;6257;57.634;18.310;2023-12-07T07:56:24;12.20;;;8.13;;
12385;SDS011;6257;57.634;18.310;2023-12-07T07:58:51;13.43;;;7.63;;
12385;SDS011;6257;57.634;18.310;2023-12-07T08:01:18;15.50;;;8.73;;
12385;SDS011;6257;57.634;18.310;2023-12-07T08:03:45;13.13;;;8.43;;
12385;SDS011;6257;57.634;18.310;2023-12-07T08:06:12;12.63;;;8.20;;
12385;SDS011;6257;57.634;18.310;2023-12-07T08:08:40;14.13;;;9.20;;
12385;SDS011;6257;57.634;18.310;2023-12-07T08:11:07;14.13;;;8.80;;
12385;SDS011;6257;57.634;18.310;2023-12-07T08:13:34;13.53;;;8.80;;
12385;SDS011;6257;57.634;18.310;2023-12-07T08:16:01;13.20;;;9.17;;
12385;SDS011;6257;57.634;18.310;2023-12-07T08:18:28;15.07;;;9.33;;
12385;SDS011;6257;57.634;18.310;2023-12-07T08:20:55;12.97;;;9.00;;
12385;SDS011;6257;57.634;18.310;2023-12-07T08:23:23;12.07;;;8.30;;
12385;SDS011;6257;57.634;18.310;2023-12-07T08:25:51;14.20;;;9.27;;
12385;SDS011;6257;57.634;18.310;2023-12-07T08:28:18;14.50;;;9.17;;
12385;SDS011;6257;57.634;18.310;2023-12-07T08:30:45;13.43;;;8.63;;
12385;SDS011;6257;57.634;18.310;2023-12-07T08:33:12;15.27;;;9.07;;
12385;SDS011;6257;57.634;18.310;2023-12-07T08:35:39;13.40;;;9.07;;
12385;SDS011;6257;57.634;18.310;2023-12-07T08:38:06;16.23;;;9.30;;
12385;SDS011;6257;57.634;18.310;2023-12-07T08:40:33;12.93;;;8.50;;
12385;SDS011;6257;57.634;18.310;2023-12-07T08:43:01;14.83;;;9.00;;
12385;SDS011;6257;57.634;18.310;2023-12-07T08:45:30;14.80;;;8.83;;
12385;SDS011;6257;57.634;18.310;2023-12-07T08:47:57;14.07;;;8.40;;
12385;SDS011;6257;57.634;18.310;2023-12-07T08:50:24;14.93;;;8.67;;
12385;SDS011;6257;57.634;18.310;2023-12-07T08:52:51;14.27;;;9.23;;
12385;SDS011;6257;57.634;18.310;2023-12-07T08:55:18;14.03;;;9.57;;
12385;SDS011;6257;57.634;18.310;2023-12-07T08:57:45;13.20;;;8.60;;
12385;SDS011;6257;57.634;18.310;2023-12-07T09:00:14;13.03;;;8.70;;
12385;SDS011;6257;57.634;18.310;2023-12-07T09:02:42;13.37;;;8.93;;
12385;SDS011;6257;57.634;18.310;2023-12-07T09:05:09;14.20;;;9.20;;
12385;SDS011;6257;57.634;18.310;2023-12-07T09:07:36;13.83;;;9.90;;
12385;SDS011;6257;57.634;18.310;2023-12-07T09:10:03;14.20;;;9.87;;
12385;SDS011;6257;57.634;18.310;2023-12-07T09:12:32;14.10;;;9.10;;
12385;SDS011;6257;57.634;18.310;2023-12-07T09:15:00;13.23;;;9.43;;
12385;SDS011;6257;57.634;18.310;2023-12-07T09:17:29;13.87;;;9.70;;
12385;SDS011;6257;57.634;18.310;2023-12-07T09:19:56;15.20;;;9.37;;
12385;SDS011;6257;57.634;18.310;2023-12-07T09:22:23;15.30;;;9.20;;
12385;SDS011;6257;57.634;18.310;2023-12-07T09:24:50;16.47;;;10.20;;
12385;SDS011;6257;57.634;18.310;2023-12-07T09:27:17;14.33;;;9.57;;
12385;SDS011;6257;57.634;18.310;2023-12-07T09:29:44;13.93;;;9.17;;
12385;SDS011;6257;57.634;18.310;2023-12-07T09:32:12;15.47;;;9.97;;
12385;SDS011;6257;57.634;18.310;2023-12-07T09:34:40;15.67;;;10.27;;
12385;SDS011;6257;57.634;18.310;2023-12-07T09:37:07;13.53;;;9.00;;
12385;SDS011;6257;57.634;18.310;2023-12-07T09:39:34;13.27;;;8.50;;
12385;SDS011;6257;57.634;18.310;2023-12-07T09:42:03;12.20;;;8.43;;
12385;SDS011;6257;57.634;18.310;2023-12-07T09:44:31;14.00;;;9.10;;
12385;SDS011;6257;57.634;18.310;2023-12-07T09:46:58;15.83;;;9.20;;
12385;SDS011;6257;57.634;18.310;2023-12-07T09:49:25;13.77;;;8.67;;
12385;SDS011;6257;57.634;18.310;2023-12-07T09:51:53;12.90;;;8.77;;
12385;SDS011;6257;57.634;18.310;2023-12-07T09:54:22;15.23;;;8.93;;
12385;SDS011;6257;57.634;18.310;2023-12-07T09:56:50;19.10;;;12.00;;
12385;SDS011;6257;57.634;18.310;2023-12-07T09:59:20;15.43;;;9.27;;
12385;SDS011;6257;57.634;18.310;2023-12-07T10:01:47;15.90;;;9.83;;
12385;SDS011;6257;57.634;18.310;2023-12-07T10:04:18;13.87;;;10.43;;
12385;SDS011;6257;57.634;18.310;2023-12-07T10:06:47;14.10;;;9.83;;
12385;SDS011;6257;57.634;18.310;2023-12-07T10:09:16;14.00;;;9.50;;
12385;SDS011;6257;57.634;18.310;2023-12-07T10:11:44;14.93;;;9.60;;
12385;SDS011;6257;57.634;18.310;2023-12-07T10:14:11;16.97;;;10.37;;
12385;SDS011;6257;57.634;18.310;2023-12-07T10:16:38;16.47;;;10.97;;
12385;SDS011;6257;57.634;18.310;2023-12-07T10:19:18;18.87;;;10.53;;
12385;SDS011;6257;57.634;18.310;2023-12-07T10:21:46;15.73;;;10.60;;
12385;SDS011;6257;57.634;18.310;2023-12-07T10:24:17;17.07;;;10.40;;
12385;SDS011;6257;57.634;18.310;2023-12-07T10:26:44;18.47;;;10.80;;
12385;SDS011;6257;57.634;18.310;2023-12-07T10:29:12;17.37;;;10.60;;
12385;SDS011;6257;57.634;18.310;2023-12-07T10:31:39;17.90;;;10.97;;
12385;SDS011;6257;57.634;18.310;2023-12-07T10:34:07;22.13;;;13.33;;
12385;SDS011;6257;57.634;18.310;2023-12-07T10:36:34;16.83;;;10.90;;
12385;SDS011;6257;57.634;18.310;2023-12-07T10:39:01;19.50;;;9.97;;
12385;SDS011;6257;57.634;18.310;2023-12-07T10:41:32;16.53;;;9.90;;
12385;SDS011;6257;57.634;18.310;2023-12-07T10:44:04;18.33;;;10.17;;
12385;SDS011;6257;57.634;18.310;2023-12-07T10:46:34;15.80;;;9.20;;
12385;SDS011;6257;57.634;18.310;2023-12-07T10:49:03;15.10;;;9.13;;
12385;SDS011;6257;57.634;18.310;2023-12-07T10:51:33;15.67;;;9.67;;
12385;SDS011;6257;57.634;18.310;2023-12-07T10:54:07;16.80;;;10.20;;
12385;SDS011;6257;57.634;18.310;2023-12-07T10:56:39;15.93;;;9.53;;
12385;SDS011;6257;57.634;18.310;2023-12-07T10:59:10;16.10;;;9.90;;
12385;SDS011;6257;57.634;18.310;2023-12-07T11:01:38;15.90;;;10.00;;
12385;SDS011;6257;57.634;18.310;2023-12-07T11:04:06;16.77;;;11.03;;
12385;SDS011;6257;57.634;18.310;2023-12-07T11:06:33;17.17;;;10.93;;
12385;SDS011;6257;57.634;18.310;2023-12-07T11:09:02;18.27;;;11.07;;
12385;SDS011;6257;57.634;18.310;2023-12-07T11:11:36;18.53;;;10.90;;
12385;SDS011;6257;57.634;18.310;2023-12-07T11:14:10;19.47;;;11.57;;
12385;SDS011;6257;57.634;18.310;2023-12-07T11:16:40;18.20;;;10.13;;
12385;SDS011;6257;57.634;18.310;2023-12-07T11:19:24;17.97;;;10.80;;
12385;SDS011;6257;57.634;18.310;2023-12-07T11:22:11;19.23;;;11.30;;
12385;SDS011;6257;57.634;18.310;2023-12-07T11:24:39;18.40;;;11.77;;
12385;SDS011;6257;57.634;18.310;2023-12-07T11:27:20;18.13;;;11.43;;
12385;SDS011;6257;57.634;18.310;2023-12-07T11:29:48;19.83;;;11.27;;
12385;SDS011;6257;57.634;18.310;2023-12-07T11:32:15;19.10;;;10.80;;
12385;SDS011;6257;57.634;18.310;2023-12-07T11:34:42;18.70;;;11.93;;
12385;SDS011;6257;57.634;18.310;2023-12-07T11:37:10;20.10;;;12.00;;
12385;SDS011;6257;57.634;18.310;2023-12-07T11:39:41;20.27;;;11.93;;
12385;SDS011;6257;57.634;18.310;2023-12-07T11:42:11;18.87;;;12.17;;
12385;SDS011;6257;57.634;18.310;2023-12-07T11:44:40;17.83;;;11.57;;
12385;SDS011;6257;57.634;18.310;2023-12-07T11:47:10;22.67;;;13.60;;
12385;SDS011;6257;57.634;18.310;2023-12-07T11:49:42;20.13;;;12.70;;
12385;SDS011;6257;57.634;18.310;2023-12-07T11:52:12;20.73;;;11.90;;
12385;SDS011;6257;57.634;18.310;2023-12-07T11:54:42;15.73;;;9.83;;
12385;SDS011;6257;57.634;18.310;2023-12-07T11:57:12;19.57;;;11.53;;
12385;SDS011;6257;57.634;18.310;2023-12-07T11:59:41;19.40;;;11.10;;
12385;SDS011;6257;57.634;18.310;2023-12-07T12:02:09;18.97;;;11.60;;
12385;SDS011;6257;57.634;18.310;2023-12-07T12:04:39;20.23;;;11.03;;
12385;SDS011;6257;57.634;18.310;2023-12-07T12:07:07;20.70;;;12.40;;
12385;SDS011;6257;57.634;18.310;2023-12-07T12:09:34;20.17;;;11.50;;
12385;SDS011;6257;57.634;18.310;2023-12-07T12:12:01;18.77;;;12.13;;
12385;SDS011;6257;57.634;18.310;2023-12-07T12:14:28;18.83;;;11.30;;
12385;SDS011;6257;57.634;18.310;2023-12-07T12:16:57;21.53;;;12.37;;
12385;SDS011;6257;57.634;18.310;2023-12-07T12:19:24;22.43;;;13.03;;
12385;SDS011;6257;57.634;18.310;2023-12-07T12:21:52;20.37;;;12.70;;
12385;SDS011;6257;57.634;18.310;2023-12-07T12:24:20;21.60;;;12.43;;
12385;SDS011;6257;57.634;18.310;2023-12-07T12:26:47;22.33;;;13.33;;
12385;SDS011;6257;57.634;18.310;2023-12-07T12:29:15;21.13;;;11.63;;
12385;SDS011;6257;57.634;18.310;2023-12-07T12:31:46;21.07;;;12.43;;
12385;SDS011;6257;57.634;18.310;2023-12-07T12:34:15;19.90;;;12.47;;
12385;SDS011;6257;57.634;18.310;2023-12-07T12:36:42;23.67;;;12.67;;
12385;SDS011;6257;57.634;18.310;2023-12-07T12:39:10;25.67;;;13.43;;
12385;SDS011;6257;57.634;18.310;2023-12-07T12:41:37;23.03;;;13.63;;
12385;SDS011;6257;57.634;18.310;2023-12-07T12:44:04;22.27;;;12.50;;
12385;SDS011;6257;57.634;18.310;2023-12-07T12:46:31;20.00;;;12.40;;
12385;SDS011;6257;57.634;18.310;2023-12-07T12:49:01;21.20;;;12.90;;
12385;SDS011;6257;57.634;18.310;2023-12-07T12:51:31;26.93;;;14.20;;
12385;SDS011;6257;57.634;18.310;2023-12-07T12:53:59;22.20;;;11.73;;
12385;SDS011;6257;57.634;18.310;2023-12-07T12:56:27;19.00;;;11.77;;
12385;SDS011;6257;57.634;18.310;2023-12-07T12:58:54;21.33;;;12.33;;
12385;SDS011;6257;57.634;18.310;2023-12-07T13:01:22;22.13;;;13.07;;
12385;SDS011;6257;57.634;18.310;2023-12-07T13:03:49;24.57;;;12.53;;
12385;SDS011;6257;57.634;18.310;2023-12-07T13:06:16;21.90;;;11.97;;
12385;SDS011;6257;57.634;18.310;2023-12-07T13:08:45;20.97;;;11.80;;
12385;SDS011;6257;57.634;18.310;2023-12-07T13:11:16;21.07;;;12.20;;
12385;SDS011;6257;57.634;18.310;2023-12-07T13:13:44;17.93;;;10.03;;
12385;SDS011;6257;57.634;18.310;2023-12-07T13:16:12;21.63;;;12.60;;
12385;SDS011;6257;57.634;18.310;2023-12-07T13:18:39;22.73;;;12.90;;
12385;SDS011;6257;57.634;18.310;2023-12-07T13:21:06;18.60;;;11.33;;
12385;SDS011;6257;57.634;18.310;2023-12-07T13:23:35;19.80;;;12.20;;
12385;SDS011;6257;57.634;18.310;2023-12-07T13:26:03;22.73;;;12.10;;
12385;SDS011;6257;57.634;18.310;2023-12-07T13:28:31;22.57;;;12.43;;
12385;SDS011;6257;57.634;18.310;2023-12-07T13:30:58;20.50;;;11.83;;
12385;SDS011;6257;57.634;18.310;2023-12-07T13:33:25;24.00;;;13.33;;
12385;SDS011;6257;57.634;18.310;2023-12-07T13:35:52;23.50;;;14.07;;
12385;SDS011;6257;57.634;18.310;2023-12-07T13:38:20;21.43;;;13.03;;
12385;SDS011;6257;57.634;18.310;2023-12-07T13:40:47;25.37;;;14.23;;
12385;SDS011;6257;57.634;18.310;2023-12-07T13:43:15;23.53;;;13.33;;
12385;SDS011;6257;57.634;18.310;2023-12-07T13:45:42;24.97;;;13.17;;
12385;SDS011;6257;57.634;18.310;2023-12-07T13:48:09;21.13;;;11.53;;
12385;SDS011;6257;57.634;18.310;2023-12-07T13:50:37;22.97;;;12.67;;
12385;SDS011;6257;57.634;18.310;2023-12-07T13:53:04;24.03;;;12.80;;
12385;SDS011;6257;57.634;18.310;2023-12-07T13:55:35;26.00;;;13.90;;
12385;SDS011;6257;57.634;18.310;2023-12-07T13:58:02;25.57;;;14.57;;
12385;SDS011;6257;57.634;18.310;2023-12-07T14:00:31;23.37;;;14.60;;
12385;SDS011;6257;57.634;18.310;2023-12-07T14:02:58;27.70;;;14.60;;
12385;SDS011;6257;57.634;18.310;2023-12-07T14:05:25;24.57;;;14.83;;
12385;SDS011;6257;57.634;18.310;2023-12-07T14:07:52;25.73;;;14.50;;
12385;SDS011;6257;57.634;18.310;2023-12-07T14:10:19;25.07;;;14.97;;
12385;SDS011;6257;57.634;18.310;2023-12-07T14:12:46;25.00;;;14.20;;
12385;SDS011;6257;57.634;18.310;2023-12-07T14:15:13;25.27;;;13.07;;
12385;SDS011;6257;57.634;18.310;2023-12-07T14:17:41;24.57;;;13.87;;
12385;SDS011;6257;57.634;18.310;2023-12-07T14:20:10;27.87;;;15.00;;
12385;SDS011;6257;57.634;18.310;2023-12-07T14:22:37;29.03;;;17.30;;
12385;SDS011;6257;57.634;18.310;2023-12-07T14:25:05;30.13;;;16.27;;
12385;SDS011;6257;57.634;18.310;2023-12-07T14:27:32;29.67;;;16.70;;
12385;SDS011;6257;57.634;18.310;2023-12-07T14:29:59;33.33;;;16.53;;
12385;SDS011;6257;57.634;18.310;2023-12-07T14:32:26;30.67;;;16.63;;
12385;SDS011;6257;57.634;18.310;2023-12-07T14:34:56;31.77;;;16.83;;
12385;SDS011;6257;57.634;18.310;2023-12-07T14:37:22;27.53;;;14.80;;
12385;SDS011;6257;57.634;18.310;2023-12-07T14:39:49;30.73;;;16.80;;
12385;SDS011;6257;57.634;18.310;2023-12-07T14:42:16;28.93;;;17.07;;